Time;durP1;ratioP1;P1;durP2;ratioP2;P2;SDS_P1;SDS_P2;PMS_P1;PMS_P2;Temp;Humidity;BMP_temperature;BMP_pressure;BME280_temperature;BME280_humidity;BME280_pressure;Samples;Min_cycle;Max_cycle;Signal;HPM_P1;HPM_P2
2022/04/08 00:01:41;;;;;;;30.85;21.27;;;18.20;54.80;;;;;;5055190;28;20183;-78
2022/04/08 00:04:08;;;;;;;31.25;20.98;;;18.40;54.90;;;;;;5072995;28;20021;-78
2022/04/08 00:06:33;;;;;;;28.67;19.70;;;18.60;54.50;;;;;;5073202;28;20020;-84
2022/04/08 00:08:59;;;;;;;29.00;18.63;;;18.50;54.70;;;;;;5072210;28;20029;-84
2022/04/08 00:11:25;;;;;;;27.55;18.23;;;18.60;54.50;;;;;;5054946;28;20028;-79
2022/04/08 00:13:53;;;;;;;24.13;17.50;;;18.70;54.20;;;;;;5073169;28;20044;-78
2022/04/08 00:16:19;;;;;;;24.40;16.83;;;18.70;54.50;;;;;;5073682;28;20020;-79
2022/04/08 00:18:46;;;;;;;26.90;17.38;;;18.80;54.40;;;;;;5072774;28;20035;-78
2022/04/08 00:21:11;;;;;;;25.58;17.38;;;18.70;54.50;;;;;;5054543;28;20081;-80
2022/04/08 00:23:37;;;;;;;24.77;15.82;;;18.70;54.40;;;;;;5054753;28;20024;-77
2022/04/08 00:26:03;;;;;;;23.73;15.95;;;18.20;54.80;;;;;;5072764;28;20024;-78
2022/04/08 00:28:29;;;;;;;20.15;12.88;;;17.70;56.30;;;;;;5073030;28;20028;-78
2022/04/08 00:30:55;;;;;;;19.42;14.35;;;17.10;57.50;;;;;;5072174;28;20027;-78
2022/04/08 00:33:21;;;;;;;22.08;16.40;;;17.00;57.70;;;;;;5055278;28;20032;-78
2022/04/08 00:35:46;;;;;;;22.63;16.45;;;17.30;57.10;;;;;;5072773;28;20052;-77
2022/04/08 00:38:12;;;;;;;21.50;16.73;;;17.50;56.60;;;;;;5072296;28;20025;-80
2022/04/08 00:40:38;;;;;;;24.23;16.08;;;17.30;56.70;;;;;;5054547;28;20052;-79
2022/04/08 00:43:34;;;;;;;22.00;15.52;;;17.40;56.70;;;;;;5072667;28;20070;-84
2022/04/08 00:46:00;;;;;;;19.08;14.35;;;17.20;57.50;;;;;;4991767;28;20042;-78
2022/04/08 00:48:26;;;;;;;46.08;15.90;;;16.90;57.90;;;;;;4990661;28;20042;-79
2022/04/08 00:50:52;;;;;;;19.90;14.43;;;16.80;58.80;;;;;;4975576;28;20045;-78
2022/04/08 00:53:17;;;;;;;25.40;15.13;;;17.00;57.50;;;;;;4975011;28;20026;-78
2022/04/08 00:55:43;;;;;;;22.48;14.63;;;16.70;57.60;;;;;;4991193;28;20217;-77
2022/04/08 00:58:09;;;;;;;20.02;14.85;;;16.70;57.80;;;;;;4991037;28;20164;-84
2022/04/08 01:00:38;;;;;;;23.40;15.23;;;17.00;58.00;;;;;;4975027;28;20034;-84
2022/04/08 01:03:05;;;;;;;25.70;14.35;;;17.10;57.00;;;;;;4990969;28;20437;-78
2022/04/08 01:05:32;;;;;;;20.70;13.85;;;17.30;56.70;;;;;;4991655;28;20038;-84
2022/04/08 01:07:58;;;;;;;20.90;13.88;;;17.30;56.60;;;;;;4974647;28;20089;-78
2022/04/08 01:10:23;;;;;;;18.67;14.20;;;17.20;56.50;;;;;;4974573;28;20042;-77
2022/04/08 01:12:49;;;;;;;19.48;13.60;;;16.90;56.90;;;;;;4991487;28;20507;-78
2022/04/08 01:15:20;;;;;;;19.60;13.73;;;17.00;57.00;;;;;;4974835;28;20504;-83
2022/04/08 01:17:46;;;;;;;18.33;13.57;;;16.90;57.50;;;;;;4990591;28;20030;-79
2022/04/08 01:20:13;;;;;;;20.48;14.07;;;17.20;57.40;;;;;;4974246;28;20026;-78
2022/04/08 01:22:39;;;;;;;18.98;13.15;;;17.20;56.70;;;;;;5013197;28;20054;-79
2022/04/08 01:25:10;;;;;;;19.98;13.57;;;17.10;57.20;;;;;;5054515;28;20033;-86
2022/04/08 01:27:37;;;;;;;17.33;13.63;;;17.10;57.10;;;;;;5072286;28;20040;-78
2022/04/08 01:30:04;;;;;;;19.50;12.18;;;17.30;57.00;;;;;;5054136;28;20058;-81
2022/04/08 01:32:30;;;;;;;16.92;12.32;;;17.40;56.90;;;;;;5056625;28;20036;-78
2022/04/08 01:34:56;;;;;;;16.98;11.85;;;17.70;56.40;;;;;;5058297;28;20041;-83
2022/04/08 01:37:22;;;;;;;20.42;12.20;;;17.40;57.00;;;;;;5075791;28;20029;-86
2022/04/08 01:39:47;;;;;;;19.38;12.77;;;17.20;57.60;;;;;;5058014;28;20040;-79
2022/04/08 01:42:13;;;;;;;19.33;13.00;;;17.20;57.60;;;;;;5075251;28;20025;-78
2022/04/08 01:44:40;;;;;;;19.70;11.90;;;17.50;57.10;;;;;;5057949;28;20487;-78
2022/04/08 01:47:05;;;;;;;16.88;11.20;;;17.40;57.00;;;;;;5075286;28;20526;-78
2022/04/08 01:49:31;;;;;;;21.33;11.68;;;17.30;57.10;;;;;;5075534;28;20028;-87
2022/04/08 01:51:57;;;;;;;19.75;12.45;;;17.40;57.00;;;;;;5075478;28;20016;-80
2022/04/08 01:54:23;;;;;;;17.60;13.57;;;17.20;57.10;;;;;;5057426;28;20395;-81
2022/04/08 01:56:49;;;;;;;11.48;7.53;;;16.80;57.90;;;;;;5075403;28;20467;-81
2022/04/08 01:59:15;;;;;;;11.98;7.60;;;16.60;57.40;;;;;;5057937;28;20036;-79
2022/04/08 02:01:41;;;;;;;10.55;6.30;;;16.50;57.90;;;;;;5075387;28;20032;-87
2022/04/08 02:04:07;;;;;;;9.23;5.30;;;16.60;57.80;;;;;;5075406;28;20112;-79
2022/04/08 02:06:35;;;;;;;7.10;4.40;;;16.70;56.20;;;;;;5057175;28;20032;-79
2022/04/08 02:09:01;;;;;;;5.95;3.97;;;17.30;55.50;;;;;;5073849;28;20033;-78
2022/04/08 02:11:26;;;;;;;5.43;3.60;;;17.40;54.00;;;;;;5057491;28;20051;-78
2022/04/08 02:13:52;;;;;;;4.97;3.30;;;17.60;53.80;;;;;;5057010;28;20020;-81
2022/04/08 02:16:18;;;;;;;4.88;2.97;;;17.40;53.40;;;;;;5057645;28;20025;-78
2022/04/08 02:18:43;;;;;;;5.22;2.92;;;17.40;53.60;;;;;;5074782;28;20074;-83
2022/04/08 02:21:10;;;;;;;8.40;2.83;;;17.50;53.70;;;;;;5056498;28;20047;-76
2022/04/08 02:23:37;;;;;;;10.05;3.08;;;17.70;53.70;;;;;;5056822;28;20033;-77
2022/04/08 02:26:05;;;;;;;6.20;2.90;;;17.90;53.90;;;;;;5057356;28;20115;-82
2022/04/08 02:28:32;;;;;;;5.53;2.47;;;18.10;53.30;;;;;;5074488;28;20040;-77
2022/04/08 02:30:58;;;;;;;4.50;2.53;;;18.10;53.60;;;;;;5074932;28;20406;-77
2022/04/08 02:33:24;;;;;;;7.05;2.40;;;18.40;53.70;;;;;;5056778;28;20036;-85
2022/04/08 02:35:50;;;;;;;4.65;2.42;;;18.50;53.10;;;;;;5057378;28;20115;-87
2022/04/08 02:38:15;;;;;;;4.90;2.40;;;17.90;53.90;;;;;;5074411;28;20028;-76
2022/04/08 02:40:41;;;;;;;3.70;2.00;;;17.70;54.80;;;;;;5057079;28;20025;-78
2022/04/08 02:43:07;;;;;;;4.57;1.92;;;17.60;55.30;;;;;;5074787;28;20602;-78
2022/04/08 02:45:32;;;;;;;5.25;1.50;;;17.70;55.70;;;;;;5075143;28;20029;-80
2022/04/08 02:47:59;;;;;;;4.50;1.70;;;17.40;56.80;;;;;;5056108;28;20021;-77
2022/04/08 02:50:25;;;;;;;2.90;1.52;;;17.40;57.30;;;;;;5074687;28;20070;-86
2022/04/08 02:52:50;;;;;;;4.72;1.60;;;17.40;57.10;;;;;;5057008;28;20025;-85
2022/04/08 02:55:16;;;;;;;3.83;1.90;;;17.60;56.60;;;;;;5056482;28;20021;-87
2022/04/08 02:57:46;;;;;;;4.43;1.83;;;17.70;57.00;;;;;;5074084;28;20028;-82
2022/04/08 03:00:16;;;;;;;4.07;1.90;;;17.80;60.00;;;;;;5056849;28;20154;-78
2022/04/08 03:02:46;;;;;;;5.07;1.95;;;17.60;60.50;;;;;;5056653;28;20115;-82
2022/04/08 03:05:15;;;;;;;5.87;1.83;;;17.20;62.30;;;;;;5074645;28;20028;-85
2022/04/08 03:07:44;;;;;;;3.60;1.88;;;17.00;63.30;;;;;;5056513;28;20407;-85
2022/04/08 03:10:20;;;;;;;3.78;1.70;;;16.90;64.40;;;;;;5071289;28;20056;-83
2022/04/08 03:12:46;;;;;;;3.78;1.52;;;17.20;64.40;;;;;;5074163;28;20027;-82
2022/04/08 03:15:11;;;;;;;4.88;1.90;;;17.00;65.10;;;;;;5056666;28;20028;-81
2022/04/08 03:17:51;;;;;;;3.35;1.60;;;17.10;64.90;;;;;;5074797;28;20039;-84
2022/04/08 03:20:20;;;;;;;2.80;1.50;;;17.10;64.90;;;;;;5056231;28;20078;-84
2022/04/08 03:22:54;;;;;;;2.78;1.35;;;17.10;65.00;;;;;;5055385;28;20043;-85
2022/04/08 03:25:20;;;;;;;2.42;1.45;;;16.70;65.20;;;;;;5073124;28;20460;-86
2022/04/08 03:27:46;;;;;;;3.10;1.38;;;16.70;65.70;;;;;;5074181;28;20025;-83
2022/04/08 03:30:40;;;;;;;3.38;1.52;;;16.50;66.50;;;;;;5056430;28;20055;-87
2022/04/08 03:33:32;;;;;;;2.60;1.50;;;16.50;66.20;;;;;;4989646;28;20027;-84
2022/04/08 03:36:07;;;;;;;2.40;1.30;;;16.30;67.00;;;;;;4976385;28;20034;-83
2022/04/08 03:38:35;;;;;;;2.20;1.10;;;16.60;66.90;;;;;;4976813;28;20026;-82
2022/04/08 03:42:00;;;;;;;2.97;1.20;;;17.00;64.10;;;;;;4976456;28;20026;-83
2022/04/08 03:44:26;;;;;;;3.00;1.20;;;17.00;64.10;;;;;;4975920;28;20045;-82
2022/04/08 03:46:52;;;;;;;2.20;1.20;;;16.90;63.40;;;;;;4992397;28;20034;-84
2022/04/08 03:49:18;;;;;;;4.03;1.30;;;16.80;64.10;;;;;;4981002;28;20038;-82
2022/04/08 03:51:47;;;;;;;2.22;1.15;;;17.00;62.80;;;;;;4976211;28;20030;-83
2022/04/08 03:54:13;;;;;;;3.97;1.25;;;17.10;63.10;;;;;;4985912;28;20400;-82
2022/04/08 03:56:43;;;;;;;2.25;1.00;;;16.90;62.00;;;;;;4992065;28;20517;-84
2022/04/08 03:59:12;;;;;;;2.15;1.05;;;17.10;61.00;;;;;;4977232;28;20559;-86
2022/04/08 04:01:53;;;;;;;3.35;1.00;;;17.00;60.50;;;;;;4985145;28;20030;-81
2022/04/08 04:04:18;;;;;;;3.72;1.02;;;16.70;60.90;;;;;;4964233;28;20036;-82
2022/04/08 04:06:44;;;;;;;3.67;1.10;;;16.90;60.10;;;;;;4991549;28;20109;-83
2022/04/08 04:09:10;;;;;;;2.17;0.95;;;16.60;60.30;;;;;;4999915;28;20093;-83
2022/04/08 04:11:36;;;;;;;1.27;0.90;;;16.50;60.20;;;;;;5053642;28;20052;-83
2022/04/08 04:14:02;;;;;;;3.10;1.00;;;16.50;59.80;;;;;;5044360;28;20032;-85
2022/04/08 04:16:28;;;;;;;3.50;1.10;;;16.60;57.60;;;;;;5035824;28;20353;-81
2022/04/08 04:18:54;;;;;;;5.30;1.20;;;16.60;56.80;;;;;;5053683;28;20452;-83
2022/04/08 04:21:19;;;;;;;2.47;0.93;;;16.40;57.30;;;;;;5040933;28;20086;-83
2022/04/08 04:23:45;;;;;;;4.45;1.00;;;16.70;57.40;;;;;;5053553;28;20425;-81
2022/04/08 04:26:11;;;;;;;3.38;1.00;;;17.10;57.00;;;;;;5035302;28;20037;-84
2022/04/08 04:28:36;;;;;;;2.58;1.13;;;17.20;56.00;;;;;;5066591;28;20025;-81
2022/04/08 04:31:06;;;;;;;1.45;0.88;;;17.50;55.40;;;;;;5052613;28;20028;-82
2022/04/08 04:33:32;;;;;;;2.30;0.90;;;17.30;54.40;;;;;;5037223;28;20021;-82
2022/04/08 04:35:58;;;;;;;2.85;1.20;;;17.30;54.00;;;;;;5042525;28;20033;-85
2022/04/08 04:38:23;;;;;;;2.65;1.10;;;17.10;52.90;;;;;;5053425;28;20079;-81
2022/04/08 04:40:49;;;;;;;2.80;1.63;;;16.80;52.50;;;;;;5071191;28;20470;-80
2022/04/08 04:43:15;;;;;;;2.75;1.00;;;17.00;52.90;;;;;;5041390;28;20064;-81
2022/04/08 04:45:41;;;;;;;6.63;1.00;;;16.70;52.50;;;;;;5072225;28;20039;-84
2022/04/08 04:48:08;;;;;;;3.35;1.25;;;17.10;52.80;;;;;;5053060;28;20467;-80
2022/04/08 04:50:33;;;;;;;2.05;1.00;;;17.10;51.10;;;;;;5073353;28;20024;-87
2022/04/08 04:53:00;;;;;;;1.85;1.00;;;17.10;51.00;;;;;;5072360;28;20031;-85
2022/04/08 04:55:26;;;;;;;2.30;1.00;;;16.80;50.60;;;;;;5055135;28;20032;-81
2022/04/08 04:57:52;;;;;;;4.00;1.10;;;16.80;50.80;;;;;;5055573;28;20059;-80
2022/04/08 05:00:19;;;;;;;3.50;1.05;;;16.70;50.80;;;;;;5055314;28;20023;-84
2022/04/08 05:02:46;;;;;;;2.85;1.25;;;16.80;49.80;;;;;;5055289;28;20082;-84
2022/04/08 05:05:12;;;;;;;5.43;1.20;;;17.00;49.20;;;;;;5055369;28;20021;-83
2022/04/08 05:07:40;;;;;;;2.67;1.20;;;17.00;49.40;;;;;;5056296;28;20124;-81
2022/04/08 05:10:08;;;;;;;6.68;1.33;;;17.10;48.70;;;;;;5076443;28;20132;-85
2022/04/08 05:12:38;;;;;;;4.70;1.30;;;17.00;48.40;;;;;;5059106;28;20487;-84
2022/04/08 05:15:09;;;;;;;4.95;1.20;;;17.20;48.40;;;;;;5076973;28;20090;-80
2022/04/08 05:17:35;;;;;;;3.58;1.67;;;16.60;48.00;;;;;;5059071;28;20134;-85
2022/04/08 05:20:05;;;;;;;4.70;1.20;;;16.50;48.30;;;;;;5058474;28;20107;-80
2022/04/08 05:22:35;;;;;;;4.03;1.25;;;16.70;48.40;;;;;;5059169;28;20031;-83
2022/04/08 05:25:01;;;;;;;3.60;1.40;;;17.10;48.00;;;;;;5058621;28;20535;-83
2022/04/08 05:27:27;;;;;;;6.53;1.33;;;17.30;47.00;;;;;;5058534;28;20115;-82
2022/04/08 05:29:52;;;;;;;4.75;2.17;;;17.20;47.20;;;;;;5058632;28;20475;-83
2022/04/08 05:32:18;;;;;;;6.50;2.20;;;17.20;47.70;;;;;;5076116;28;20078;-81
2022/04/08 05:34:44;;;;;;;4.20;1.70;;;17.30;47.40;;;;;;5058660;28;20056;-80
2022/04/08 05:37:12;;;;;;;6.45;1.40;;;17.40;47.60;;;;;;5056673;28;20016;-79
2022/04/08 05:39:38;;;;;;;3.70;1.20;;;17.30;46.70;;;;;;5062968;28;20573;-78
2022/04/08 05:42:07;;;;;;;3.70;1.27;;;17.40;46.90;;;;;;5046001;28;20120;-81
2022/04/08 05:44:33;;;;;;;7.43;2.08;;;17.20;47.00;;;;;;5056057;28;20442;-81
2022/04/08 05:46:58;;;;;;;6.53;2.60;;;17.10;47.40;;;;;;5056169;28;20024;-79
2022/04/08 05:49:24;;;;;;;3.83;2.10;;;17.10;47.90;;;;;;5037953;28;20041;-82
2022/04/08 05:51:50;;;;;;;5.65;1.70;;;17.20;47.60;;;;;;5037093;28;20021;-80
2022/04/08 05:54:15;;;;;;;6.82;3.50;;;17.10;47.40;;;;;;5054432;28;20033;-81
2022/04/08 05:56:41;;;;;;;4.68;1.60;;;17.30;47.70;;;;;;5035843;28;20047;-81
2022/04/08 05:59:07;;;;;;;5.53;1.48;;;17.50;47.20;;;;;;5035903;28;20032;-81
2022/04/08 06:01:32;;;;;;;5.63;1.52;;;17.70;47.40;;;;;;5053865;28;20376;-82
2022/04/08 06:03:58;;;;;;;4.47;1.88;;;17.90;46.10;;;;;;5054409;28;20471;-82
2022/04/08 06:06:24;;;;;;;4.40;1.67;;;18.00;47.20;;;;;;5037255;28;20131;-80
2022/04/08 06:08:49;;;;;;;3.45;1.50;;;18.10;46.60;;;;;;5036745;28;20029;-83
2022/04/08 06:11:15;;;;;;;6.72;1.70;;;18.30;46.70;;;;;;5054985;28;20059;-85
2022/04/08 06:13:40;;;;;;;4.88;1.80;;;18.20;46.40;;;;;;5055730;28;20037;-85
2022/04/08 06:16:06;;;;;;;4.65;1.52;;;18.40;47.10;;;;;;5037769;28;20470;-86
2022/04/08 06:18:33;;;;;;;6.55;1.88;;;18.50;46.10;;;;;;5036857;28;20462;-81
2022/04/08 06:21:00;;;;;;;4.65;1.30;;;18.40;46.50;;;;;;5055676;28;20028;-84
2022/04/08 06:23:26;;;;;;;6.53;1.90;;;18.20;46.40;;;;;;5037489;28;20025;-83
2022/04/08 06:25:51;;;;;;;3.83;1.30;;;18.10;45.80;;;;;;5056044;28;20495;-86
2022/04/08 06:28:17;;;;;;;4.68;1.40;;;18.00;46.40;;;;;;5037053;28;20040;-80
2022/04/08 06:30:43;;;;;;;5.43;1.80;;;18.00;46.90;;;;;;5055274;28;20044;-80
2022/04/08 06:33:09;;;;;;;3.67;1.50;;;17.80;47.30;;;;;;5055144;28;20033;-83
2022/04/08 06:35:35;;;;;;;5.18;1.50;;;17.80;47.70;;;;;;5054779;28;20021;-87
2022/04/08 06:38:02;;;;;;;5.07;1.60;;;17.70;47.20;;;;;;5054882;28;20025;-83
2022/04/08 06:40:28;;;;;;;5.18;1.70;;;17.70;46.90;;;;;;5055107;28;20021;-84
2022/04/08 06:42:59;;;;;;;4.00;1.38;;;17.40;46.70;;;;;;5036768;28;20021;-81
2022/04/08 06:45:26;;;;;;;;;;;17.60;47.90;;;;;;5037531;28;20029;-83
2022/04/08 06:47:52;;;;;;;5.97;2.10;;;18.00;47.40;;;;;;5054804;28;19970;-83
2022/04/08 06:50:19;;;;;;;5.07;1.65;;;18.30;46.40;;;;;;5037304;28;20043;-81
2022/04/08 06:52:46;;;;;;;4.47;1.42;;;18.60;46.20;;;;;;5054891;28;20024;-84
2022/04/08 06:55:12;;;;;;;3.63;1.40;;;18.70;45.80;;;;;;5037262;28;20025;-88
2022/04/08 06:57:37;;;;;;;6.75;1.50;;;18.70;45.50;;;;;;5036594;28;20036;-82
2022/04/08 07:00:09;;;;;;;4.07;1.58;;;18.70;46.00;;;;;;5036883;28;20021;-85
2022/04/08 07:02:35;;;;;;;4.93;1.40;;;18.70;46.10;;;;;;5037485;28;20033;-79
2022/04/08 07:05:01;;;;;;;6.93;1.80;;;18.80;45.70;;;;;;5036623;28;20028;-84
2022/04/08 07:07:31;;;;;;;4.97;1.70;;;18.80;45.80;;;;;;5036963;28;20029;-83
2022/04/08 07:09:57;;;;;;;6.17;1.70;;;19.10;45.20;;;;;;5036408;28;20403;-90
2022/04/08 07:12:25;;;;;;;4.75;1.60;;;19.60;44.00;;;;;;5036496;28;20771;-84
2022/04/08 07:14:51;;;;;;;4.38;1.50;;;20.10;44.30;;;;;;5055198;28;20108;-85
2022/04/08 07:17:16;;;;;;;3.95;1.25;;;20.50;43.10;;;;;;5036865;28;20025;-85
2022/04/08 07:19:42;;;;;;;5.43;1.67;;;20.60;42.70;;;;;;5036759;28;20087;-83
2022/04/08 07:22:08;;;;;;;7.43;1.60;;;21.50;42.50;;;;;;5036987;28;20063;-82
2022/04/08 07:24:33;;;;;;;5.32;1.50;;;22.40;41.90;;;;;;5054776;28;20410;-82
2022/04/08 07:26:59;;;;;;;3.95;1.58;;;22.70;40.80;;;;;;5036905;28;20559;-79
2022/04/08 07:29:25;;;;;;;5.78;1.60;;;22.80;41.00;;;;;;5036415;28;20041;-82
2022/04/08 07:31:50;;;;;;;4.97;1.50;;;22.80;40.90;;;;;;5054678;28;20097;-82
2022/04/08 07:34:16;;;;;;;5.90;1.60;;;22.70;41.20;;;;;;5036768;28;20031;-85
2022/04/08 07:36:42;;;;;;;4.20;1.50;;;22.10;41.50;;;;;;5053885;28;20419;-78
2022/04/08 07:39:07;;;;;;;6.18;1.50;;;21.80;41.30;;;;;;5036377;28;20029;-81
2022/04/08 07:41:33;;;;;;;4.15;1.40;;;21.70;42.10;;;;;;5035846;28;20437;-85
2022/04/08 07:43:59;;;;;;;4.05;1.63;;;21.90;41.80;;;;;;5035907;28;20025;-79
2022/04/08 07:46:24;;;;;;;3.67;1.23;;;21.40;42.10;;;;;;5036209;28;20120;-84
2022/04/08 07:48:50;;;;;;;3.88;1.50;;;21.50;42.70;;;;;;5053902;28;20032;-81
2022/04/08 07:51:16;;;;;;;3.85;1.42;;;22.10;41.70;;;;;;5035855;28;20025;-79
2022/04/08 07:53:42;;;;;;;5.18;1.40;;;21.10;42.00;;;;;;5036248;28;20032;-79
2022/04/08 07:56:08;;;;;;;4.60;1.45;;;21.10;41.60;;;;;;5053992;28;20376;-87
2022/04/08 07:58:33;;;;;;;5.72;1.40;;;20.90;42.10;;;;;;5036200;28;20025;-81
2022/04/08 08:00:59;;;;;;;4.32;1.50;;;20.90;42.90;;;;;;5053444;28;20068;-83
2022/04/08 08:03:25;;;;;;;5.35;1.52;;;21.30;41.70;;;;;;5035696;28;20029;-80
2022/04/08 08:05:53;;;;;;;4.78;1.48;;;21.70;41.20;;;;;;5053567;28;20028;-84
2022/04/08 08:08:19;;;;;;;5.10;1.40;;;21.80;41.10;;;;;;5035609;28;20051;-81
2022/04/08 08:10:45;;;;;;;8.52;1.65;;;22.30;40.10;;;;;;5036014;28;20052;-85
2022/04/08 08:13:11;;;;;;;3.40;1.27;;;23.20;39.50;;;;;;5036173;28;20027;-87
2022/04/08 08:15:37;;;;;;;4.68;1.45;;;23.40;39.50;;;;;;5035896;28;20029;-86
2022/04/08 08:18:03;;;;;;;5.70;1.60;;;23.10;38.40;;;;;;5053420;28;20032;-87
2022/04/08 08:20:29;;;;;;;6.57;1.90;;;23.20;39.60;;;;;;5053265;28;20079;-83
2022/04/08 08:22:55;;;;;;;5.38;1.58;;;23.60;38.80;;;;;;5035610;28;20468;-87
2022/04/08 08:25:21;;;;;;;6.90;1.90;;;23.20;38.90;;;;;;5053905;28;20025;-84
2022/04/08 08:27:52;;;;;;;3.75;1.67;;;23.20;38.70;;;;;;5053678;28;20024;-88
2022/04/08 08:30:17;;;;;;;;;;;23.30;38.00;;;;;;5036145;28;20040;-85
2022/04/08 08:32:45;;;;;;;4.35;1.55;;;22.40;39.00;;;;;;5053696;28;19906;-88
2022/04/08 08:35:17;;;;;;;3.38;1.42;;;22.10;38.50;;;;;;5053158;28;20013;-85
2022/04/08 08:38:07;;;;;;;3.42;1.42;;;23.00;38.30;;;;;;5091253;28;20444;-87
2022/04/08 08:40:34;;;;;;;5.35;1.40;;;24.10;38.20;;;;;;5090526;28;20074;-85
2022/04/08 08:43:00;;;;;;;5.20;1.33;;;24.70;36.90;;;;;;5090811;28;20103;-86
2022/04/08 08:45:32;;;;;;;6.15;1.60;;;24.20;36.90;;;;;;5091169;28;20094;-78
2022/04/08 08:48:00;;;;;;;4.03;1.30;;;23.60;38.70;;;;;;5090269;28;20031;-86
2022/04/08 08:50:27;;;;;;;3.30;1.20;;;23.00;39.70;;;;;;5090722;28;20024;-83
2022/04/08 08:52:53;;;;;;;4.75;1.50;;;22.80;37.30;;;;;;5090013;28;20483;-89
2022/04/08 08:55:19;;;;;;;3.78;1.58;;;22.40;38.20;;;;;;5090985;28;20028;-81
2022/04/08 08:57:47;;;;;;;6.40;1.60;;;22.80;38.10;;;;;;5089721;28;20094;-79
2022/04/08 09:00:18;;;;;;;3.50;1.40;;;22.80;38.20;;;;;;5089612;28;20020;-86
2022/04/08 09:02:48;;;;;;;5.85;1.52;;;22.10;38.40;;;;;;5091653;28;20020;-85
2022/04/08 09:05:14;;;;;;;5.45;1.70;;;20.90;39.40;;;;;;5091463;28;20028;-81
2022/04/08 09:07:40;;;;;;;7.25;1.80;;;20.30;40.20;;;;;;5090690;28;20024;-85
2022/04/08 09:10:07;;;;;;;4.82;1.58;;;20.40;40.70;;;;;;5090927;28;20528;-85
2022/04/08 09:12:33;;;;;;;6.57;1.40;;;20.40;39.80;;;;;;5090212;28;20032;-80
2022/04/08 09:15:01;;;;;;;5.53;2.63;;;19.60;41.10;;;;;;5090612;28;20020;-84
2022/04/08 09:17:28;;;;;;;6.95;2.05;;;19.00;41.70;;;;;;5090234;28;20032;-79
2022/04/08 09:19:56;;;;;;;4.65;1.98;;;19.40;42.60;;;;;;5088679;28;20158;-78
2022/04/08 09:22:26;;;;;;;5.85;1.52;;;20.10;41.90;;;;;;5088896;28;20059;-79
2022/04/08 09:24:52;;;;;;;;;;;20.10;41.80;;;;;;5090593;28;20020;-81
2022/04/08 09:27:17;;;;;;;7.65;1.63;;;20.00;42.00;;;;;;5089328;28;20211;-78
2022/04/08 09:29:44;;;;;;;5.93;1.52;;;20.60;42.20;;;;;;5088520;28;20039;-79
2022/04/08 09:32:12;;;;;;;5.28;1.50;;;21.40;41.40;;;;;;5089239;28;20024;-80
2022/04/08 09:34:39;;;;;;;5.28;2.00;;;22.10;40.20;;;;;;5088387;28;20470;-79
2022/04/08 09:37:10;;;;;;;4.38;1.40;;;22.40;39.70;;;;;;5089275;28;20060;-87
2022/04/08 09:39:36;;;;;;;;;;;23.10;38.80;;;;;;5089860;28;20039;-78
2022/04/08 09:42:06;;;;;;;5.10;1.90;;;23.10;39.50;;;;;;5089866;28;19908;-87
2022/04/08 09:44:35;;;;;;;5.68;2.33;;;23.30;37.10;;;;;;5090276;28;20016;-90
2022/04/08 09:47:03;;;;;;;6.90;2.10;;;23.40;38.50;;;;;;5089845;28;20031;-79
2022/04/08 09:49:29;;;;;;;3.67;1.38;;;23.20;37.80;;;;;;5075754;28;20025;-81
2022/04/08 09:51:56;;;;;;;4.43;1.50;;;24.40;37.00;;;;;;5074519;28;20387;-81
2022/04/08 09:54:23;;;;;;;4.55;1.38;;;25.50;37.00;;;;;;5074795;28;20021;-81
2022/04/08 09:56:50;;;;;;;3.08;1.52;;;25.90;35.00;;;;;;5075442;28;20449;-81
2022/04/08 09:59:21;;;;;;;5.68;1.90;;;25.30;35.00;;;;;;5078610;28;20021;-79
2022/04/08 10:01:47;;;;;;;3.00;1.30;;;25.30;36.70;;;;;;5075632;28;20380;-80
2022/04/08 10:04:14;;;;;;;4.88;1.67;;;26.00;35.10;;;;;;5075210;28;20024;-87
2022/04/08 10:06:45;;;;;;;3.75;1.50;;;26.20;34.70;;;;;;5075392;28;20054;-78
2022/04/08 10:09:13;;;;;;;5.75;1.67;;;25.10;34.60;;;;;;5074556;28;20012;-89
2022/04/08 10:11:58;;;;;;;3.97;1.20;;;24.20;35.10;;;;;;5075866;28;20535;-79
2022/04/08 10:14:44;;;;;;;5.68;1.50;;;24.50;35.40;;;;;;5075928;28;20056;-84
2022/04/08 10:17:10;;;;;;;6.22;1.40;;;25.40;34.30;;;;;;5074727;28;20483;-87
2022/04/08 10:19:36;;;;;;;3.58;1.50;;;24.60;34.10;;;;;;5074494;28;20024;-79
2022/04/08 10:22:02;;;;;;;5.10;1.27;;;24.60;34.80;;;;;;5074443;28;20421;-79
2022/04/08 10:24:30;;;;;;;3.80;1.50;;;24.90;34.40;;;;;;5075128;28;20035;-86
2022/04/08 10:26:57;;;;;;;4.55;1.60;;;24.80;34.70;;;;;;5074326;28;20025;-87
2022/04/08 10:29:23;;;;;;;3.67;1.50;;;26.00;34.00;;;;;;5074228;28;20125;-86
2022/04/08 10:32:02;;;;;;;4.95;1.98;;;25.20;33.70;;;;;;5074169;28;20046;-84
2022/04/08 10:34:32;;;;;;;6.03;1.58;;;25.30;34.10;;;;;;5073931;28;20074;-78
2022/04/08 10:37:01;;;;;;;4.13;1.20;;;26.10;35.00;;;;;;5073323;28;20575;-81
2022/04/08 10:39:27;;;;;;;7.78;1.80;;;27.20;33.20;;;;;;5075349;28;20086;-79
2022/04/08 10:41:58;;;;;;;4.38;1.35;;;26.30;32.50;;;;;;5073684;28;20024;-80
2022/04/08 10:44:34;;;;;;;4.72;1.63;;;25.90;33.80;;;;;;5073902;28;20494;-87
2022/04/08 10:47:14;;;;;;;3.25;1.38;;;25.70;31.60;;;;;;5074886;28;20028;-79
2022/04/08 10:49:52;;;;;;;5.50;1.50;;;25.80;32.10;;;;;;5075078;28;20475;-80
2022/04/08 10:52:22;;;;;;;3.60;1.20;;;25.80;32.90;;;;;;5073576;28;20040;-86
2022/04/08 10:54:49;;;;;;;3.47;1.33;;;26.30;31.70;;;;;;5073462;28;20029;-79
2022/04/08 10:57:26;;;;;;;5.72;1.20;;;26.40;32.50;;;;;;5074768;28;20448;-79
2022/04/08 10:59:53;;;;;;;3.05;1.48;;;27.10;33.00;;;;;;5072693;28;20060;-79
2022/04/08 11:02:20;;;;;;;2.15;1.05;;;26.70;32.40;;;;;;5074665;28;20018;-77
2022/04/08 11:04:46;;;;;;;3.75;1.60;;;26.00;32.80;;;;;;5075211;28;20387;-78
2022/04/08 11:07:11;;;;;;;3.13;1.40;;;25.40;33.90;;;;;;5074126;28;20475;-80
2022/04/08 11:09:37;;;;;;;5.28;1.50;;;24.80;33.80;;;;;;5074768;28;20051;-78
2022/04/08 11:12:03;;;;;;;3.28;1.40;;;23.60;33.90;;;;;;5074270;28;20028;-79
2022/04/08 11:14:29;;;;;;;4.78;1.50;;;22.70;35.20;;;;;;5074163;28;20066;-86
2022/04/08 11:16:55;;;;;;;2.90;1.10;;;22.80;35.60;;;;;;5072673;28;20040;-79
2022/04/08 11:19:22;;;;;;;5.50;1.20;;;22.70;36.00;;;;;;5072636;28;20025;-87
2022/04/08 11:21:48;;;;;;;5.68;1.23;;;22.90;35.10;;;;;;5073074;28;20031;-79
2022/04/08 11:24:16;;;;;;;5.30;1.20;;;23.10;35.70;;;;;;5073281;28;20471;-87
2022/04/08 11:26:45;;;;;;;4.75;1.52;;;23.50;34.60;;;;;;5074214;28;20029;-82
2022/04/08 11:29:15;;;;;;;3.17;1.17;;;23.70;35.20;;;;;;5074054;28;20028;-79
2022/04/08 11:31:41;;;;;;;4.47;1.30;;;23.50;35.60;;;;;;5072897;28;20036;-86
2022/04/08 11:34:07;;;;;;;3.03;1.20;;;23.10;34.20;;;;;;5073755;28;20021;-85
2022/04/08 11:36:34;;;;;;;3.58;1.40;;;23.50;36.40;;;;;;5073513;28;20066;-87
2022/04/08 11:39:00;;;;;;;2.28;1.05;;;23.90;35.50;;;;;;5073652;28;20379;-85
2022/04/08 11:41:28;;;;;;;3.35;1.20;;;23.70;35.10;;;;;;5073815;28;20028;-79
2022/04/08 11:43:54;;;;;;;4.97;1.23;;;23.60;35.00;;;;;;5072699;28;20461;-79
2022/04/08 11:46:20;;;;;;;4.22;1.35;;;23.80;35.60;;;;;;5074016;28;20439;-79
2022/04/08 11:48:46;;;;;;;3.15;1.35;;;23.40;35.40;;;;;;5074182;28;20529;-88
2022/04/08 11:51:12;;;;;;;2.53;1.15;;;23.30;35.80;;;;;;5073836;28;20025;-79
2022/04/08 11:53:52;;;;;;;5.50;1.23;;;23.20;36.10;;;;;;5073291;28;20024;-83
2022/04/08 11:56:23;;;;;;;4.22;1.35;;;22.90;35.70;;;;;;5072245;28;20493;-81
2022/04/08 11:59:15;;;;;;;3.65;1.30;;;22.50;36.00;;;;;;5072951;28;20146;-84
2022/04/08 12:01:41;;;;;;;3.08;1.40;;;22.40;36.50;;;;;;5073666;28;20422;-79
2022/04/08 12:04:12;;;;;;;3.00;1.10;;;22.90;36.40;;;;;;5073621;28;20103;-79
2022/04/08 12:06:49;;;;;;;2.40;1.02;;;23.00;35.50;;;;;;5074184;28;20111;-84
2022/04/08 12:09:17;;;;;;;3.15;1.05;;;23.20;35.20;;;;;;5073158;28;20044;-79
2022/04/08 12:11:45;;;;;;;2.58;1.10;;;23.30;37.40;;;;;;5073211;28;20055;-82
2022/04/08 12:14:12;;;;;;;3.75;1.10;;;23.50;35.30;;;;;;5073458;28;20060;-86
2022/04/08 12:16:39;;;;;;;3.50;1.30;;;23.00;35.50;;;;;;5072146;28;20444;-84
2022/04/08 12:19:07;;;;;;;7.13;1.30;;;23.00;36.80;;;;;;5072496;28;20055;-85
2022/04/08 12:21:33;;;;;;;3.90;1.30;;;23.30;36.70;;;;;;5072133;28;20024;-86
2022/04/08 12:24:03;;;;;;;5.00;1.10;;;23.80;36.20;;;;;;5073391;28;20383;-84
2022/04/08 12:26:33;;;;;;;;;;;23.40;36.50;;;;;;5074044;28;20024;-83
2022/04/08 12:29:12;;;;;;;3.25;1.30;;;22.90;36.50;;;;;;5073649;28;19915;-85
2022/04/08 12:31:48;;;;;;;4.13;1.40;;;23.10;36.70;;;;;;5071863;28;20383;-84
2022/04/08 12:34:15;;;;;;;3.65;1.10;;;23.20;37.50;;;;;;5072213;28;20031;-85
2022/04/08 12:36:45;;;;;;;3.78;1.20;;;23.40;36.60;;;;;;5071723;28;20053;-84
2022/04/08 12:39:11;;;;;;;4.23;1.20;;;23.40;37.20;;;;;;5072311;28;20117;-85
2022/04/08 12:41:41;;;;;;;6.88;3.20;;;23.10;36.80;;;;;;5072221;28;20022;-87
2022/04/08 12:44:08;;;;;;;4.40;1.70;;;22.70;37.00;;;;;;5073191;28;20028;-85
2022/04/08 12:46:35;;;;;;;5.50;1.40;;;22.60;37.80;;;;;;5073211;28;20044;-83
2022/04/08 12:49:01;;;;;;;5.63;1.30;;;22.70;37.80;;;;;;5073419;28;20503;-86